Portada
METAR-TAF:

METAR-TAF

Aeroports :

Petrolina, Pernambuco, Brasil

latitud: 09-21S, longitud: 040-33W, altitud: 385 m

Observació

L'informe es va fer fa 38 minuts, a les 03:00 UTC
Vent 13 kt del Sud/Sud-Est
Temperatura 22°C
Humitat 73%
Pressió 1020 hPa
Visibilitat 10 km o més
Núvols disperses a una alçada de 2500 ft
Núvols disperses a una alçada de 7000 ft

METAR: SBPL 220300Z 15013KT 9999 SCT025 SCT070 22/17 Q1020

Hora: 00:38 (03:38 UTC)

Pronòstic

L'informe es va fer fa 7 hores i 38 minuts, a les 20:00 UTC
Pronòstic vàlid del 22 a les 00 UTC al 22 a les 12 UTC
Vent 10 kt del Sud/Sud-Est
Visibilitat 10 km o més
sense núvols per sota de 1500 mi sense presència de cumulonimbus.
Evolucionant progressivament
l' 22 a les 09 UTC al 22 a les 11 UTC
Vent 15 kt del Sud-Est

TAF: SBPL 212000Z 2200/2212 16010KT CAVOK TN21/2206Z TX24/2212Z BECMG 2209/2211 13015KT RMK PEH

Observacions i pronòstics meteorològics de més de 4000 aeroports (METAR i TAF).

Les estacions disponibles són els punts grocs i vermells al mapa.

Posi el ratolí al punt desitjat per veure el nom de l'estació.

Feu clic per veure les observacions i els pronòstics meteorològics.

Per canviar el mapa: feu clic els botons verds amb una creu de color negre per apropar; al botó verd amb un guió per allunyar la imatge; o en les fletxes verdes per a mapes adjacents.


METAR-TAF: